createdAt,value
2022-10-05T00:02:18.310Z,8.93
2022-10-05T00:07:27.353Z,9.88
2022-10-05T00:12:32.662Z,10.52
2022-10-05T00:17:38.158Z,9.25
2022-10-05T00:22:46.565Z,10.10
2022-10-05T00:27:57.258Z,10.20
2022-10-05T00:33:02.420Z,9.80
2022-10-05T00:38:10.658Z,12.77
2022-10-05T00:43:41.618Z,10.45
2022-10-05T00:54:09.037Z,13.25
2022-10-05T00:59:20.136Z,11.65
2022-10-05T01:04:30.554Z,25.75
2022-10-05T01:09:43.990Z,11.35
2022-10-05T01:14:53.606Z,13.13
2022-10-05T01:20:15.750Z,11.40
2022-10-05T01:25:28.843Z,11.02
2022-10-05T01:30:41.111Z,9.88
2022-10-05T01:35:51.790Z,10.95
2022-10-05T01:41:03.995Z,10.57
2022-10-05T01:46:20.111Z,15.00
2022-10-05T01:51:29.930Z,12.70
2022-10-05T01:56:40.063Z,14.48
2022-10-05T02:01:52.303Z,9.50
2022-10-05T02:06:57.548Z,8.38
2022-10-05T02:12:05.906Z,9.40
2022-10-05T02:17:17.439Z,9.50
2022-10-05T02:22:25.556Z,10.10
2022-10-05T02:27:33.612Z,11.10
2022-10-05T02:32:44.806Z,9.30
2022-10-05T02:37:57.694Z,10.88
2022-10-05T02:43:07.775Z,8.50
2022-10-05T02:48:21.798Z,12.43
2022-10-05T02:53:29.897Z,9.02
2022-10-05T02:58:39.899Z,11.52
2022-10-05T03:03:53.242Z,9.60
2022-10-05T03:09:04.851Z,8.82
2022-10-05T03:14:13.876Z,10.35
2022-10-05T03:19:37.527Z,10.75
2022-10-05T03:24:50.632Z,10.15
2022-10-05T03:30:01.844Z,11.10
2022-10-05T03:35:14.758Z,13.00
2022-10-05T03:40:28.282Z,12.68
2022-10-05T03:45:38.038Z,11.32
2022-10-05T03:50:49.086Z,10.05
2022-10-05T03:55:57.473Z,12.85
2022-10-05T04:01:05.200Z,13.25
2022-10-05T04:06:16.628Z,15.13
2022-10-05T04:11:25.245Z,14.98
2022-10-05T04:16:31.601Z,12.15
2022-10-05T04:21:43.372Z,12.43
2022-10-05T04:26:52.370Z,10.25
2022-10-05T04:32:10.913Z,12.15
2022-10-05T04:37:24.755Z,12.48
2022-10-05T04:42:34.908Z,14.60
2022-10-05T04:48:11.210Z,14.77
2022-10-05T04:53:26.103Z,15.82
2022-10-05T04:58:52.150Z,15.32
2022-10-05T05:04:23.031Z,13.00
2022-10-05T05:09:49.894Z,12.80
2022-10-05T05:15:20.147Z,14.93
2022-10-05T05:20:31.438Z,11.53
2022-10-05T05:25:46.323Z,12.63
2022-10-05T05:30:54.513Z,13.55
2022-10-05T05:36:26.663Z,19.00
2022-10-05T05:41:40.524Z,14.80
2022-10-05T05:47:03.456Z,17.95
2022-10-05T05:52:14.497Z,14.70
2022-10-05T06:02:31.337Z,15.88
2022-10-05T06:07:39.491Z,18.45
2022-10-05T06:12:49.143Z,19.27
2022-10-05T06:17:56.908Z,18.73
2022-10-05T06:23:04.475Z,14.77
2022-10-05T06:28:16.315Z,11.70
2022-10-05T06:33:31.151Z,17.10
2022-10-05T06:38:49.455Z,12.25
2022-10-05T06:44:01.143Z,14.73
2022-10-05T06:49:17.831Z,13.00
2022-10-05T06:54:49.042Z,15.25
2022-10-05T07:00:02.327Z,15.02
2022-10-05T07:05:39.715Z,14.63
2022-10-05T07:10:54.921Z,18.15
2022-10-05T07:16:06.014Z,14.52
2022-10-05T07:21:18.757Z,13.80
2022-10-05T07:26:27.648Z,13.60
2022-10-05T07:31:39.616Z,13.80
2022-10-05T07:36:59.878Z,14.93
2022-10-05T07:42:12.266Z,16.00
2022-10-05T07:47:25.403Z,16.60
2022-10-05T07:52:36.903Z,15.48
2022-10-05T07:57:47.628Z,13.50
2022-10-05T08:02:59.023Z,14.35
2022-10-05T08:08:09.543Z,12.60
2022-10-05T08:13:20.333Z,12.00
2022-10-05T08:18:45.665Z,13.88
2022-10-05T08:23:55.404Z,22.63
2022-10-05T08:29:11.518Z,9.73
2022-10-05T08:34:28.861Z,9.52
2022-10-05T08:39:38.779Z,11.00
2022-10-05T08:45:27.499Z,14.05
2022-10-05T08:50:41.463Z,11.45
2022-10-05T08:56:00.664Z,10.05
2022-10-05T09:01:10.866Z,8.88
2022-10-05T09:06:28.318Z,10.57
2022-10-05T09:11:39.260Z,12.38
2022-10-05T09:16:54.459Z,9.57
2022-10-05T09:22:09.432Z,9.55
2022-10-05T09:27:17.635Z,9.32
2022-10-05T09:32:46.575Z,6.30
2022-10-05T09:38:14.093Z,7.82
2022-10-05T09:43:37.615Z,9.80
2022-10-05T09:49:16.603Z,7.13
2022-10-05T09:55:01.528Z,8.52
2022-10-05T10:00:21.304Z,6.90
2022-10-05T10:05:49.279Z,5.32
2022-10-05T10:11:19.084Z,7.28
2022-10-05T10:22:03.104Z,4.72
2022-10-05T10:27:33.432Z,3.60
2022-10-05T10:33:17.894Z,2.95
2022-10-05T10:38:31.562Z,3.85
2022-10-05T10:43:50.363Z,3.15
2022-10-05T10:49:12.641Z,5.38
2022-10-05T10:54:39.879Z,3.53
2022-10-05T11:00:15.813Z,3.65
2022-10-05T11:05:59.394Z,2.17
2022-10-05T11:11:32.129Z,4.05
2022-10-05T11:17:07.006Z,2.22
2022-10-05T11:22:39.583Z,2.50
2022-10-05T11:28:02.538Z,3.55
2022-10-05T11:33:40.609Z,2.40
2022-10-05T11:39:15.642Z,3.75
2022-10-05T11:44:54.064Z,3.45
2022-10-05T11:50:07.153Z,3.47
2022-10-05T11:55:25.350Z,3.17
2022-10-05T12:00:35.729Z,4.68
2022-10-05T12:05:46.914Z,12.57
2022-10-05T12:11:02.818Z,3.28
2022-10-05T12:16:15.523Z,4.03
2022-10-05T12:21:29.569Z,2.58
2022-10-05T12:26:37.298Z,5.32
2022-10-05T12:31:51.055Z,3.63
2022-10-05T12:37:04.005Z,2.55
2022-10-05T12:42:20.251Z,3.20
2022-10-05T12:47:31.489Z,2.28
2022-10-05T12:53:01.324Z,2.67
2022-10-05T12:58:17.222Z,2.58
2022-10-05T13:03:28.956Z,2.78
2022-10-05T13:08:38.720Z,1.95
2022-10-05T13:13:53.235Z,2.65
2022-10-05T13:19:11.843Z,2.67
2022-10-05T13:24:21.890Z,3.13
2022-10-05T13:29:33.343Z,4.20
2022-10-05T13:34:44.969Z,2.05
2022-10-05T13:40:01.567Z,2.90
2022-10-05T13:45:13.392Z,6.25
2022-10-05T13:50:23.752Z,4.60
2022-10-05T13:55:39.560Z,3.30
2022-10-05T14:00:51.194Z,2.83
2022-10-05T14:06:00.329Z,4.15
2022-10-05T14:11:23.962Z,4.80
2022-10-05T14:16:29.164Z,5.18
2022-10-05T14:21:49.723Z,4.85
2022-10-05T14:26:55.753Z,10.23
2022-10-05T14:32:05.734Z,7.25
2022-10-05T14:37:24.888Z,6.25
2022-10-05T14:42:32.284Z,4.93
2022-10-05T14:47:39.783Z,10.25
2022-10-05T14:52:51.943Z,8.30
2022-10-05T14:58:05.411Z,6.30
2022-10-05T15:03:27.554Z,6.43
2022-10-05T15:08:48.282Z,5.68
2022-10-05T15:13:53.711Z,4.38
2022-10-05T15:19:04.567Z,6.38
2022-10-05T15:24:15.752Z,8.07
2022-10-05T15:29:52.349Z,9.57
2022-10-05T15:35:11.350Z,10.57
2022-10-05T15:40:25.958Z,9.68
2022-10-05T15:45:34.108Z,13.85
2022-10-05T15:50:45.809Z,13.20
2022-10-05T15:55:55.595Z,36.53
2022-10-05T16:01:05.012Z,43.95
2022-10-05T16:06:25.587Z,21.00
2022-10-05T16:11:46.632Z,15.45
2022-10-05T16:17:00.768Z,13.95
2022-10-05T16:22:14.269Z,12.38
2022-10-05T16:27:31.285Z,9.23
2022-10-05T16:32:42.686Z,10.57
2022-10-05T16:37:53.090Z,10.68
2022-10-05T16:43:07.918Z,10.38
2022-10-05T16:48:17.592Z,9.65
2022-10-05T16:53:26.314Z,5.97
2022-10-05T16:58:41.474Z,9.82
2022-10-05T17:03:58.912Z,12.27
2022-10-05T17:09:24.853Z,7.97
2022-10-05T17:14:40.167Z,32.75
2022-10-05T17:19:55.296Z,10.13
2022-10-05T17:25:09.891Z,11.85
2022-10-05T17:30:54.118Z,10.52
2022-10-05T17:36:18.024Z,9.80
2022-10-05T17:41:28.906Z,9.40
2022-10-05T17:46:45.835Z,9.68
2022-10-05T17:52:18.812Z,14.38
2022-10-05T17:57:28.908Z,11.07
2022-10-05T18:02:47.322Z,13.00
2022-10-05T18:08:31.864Z,13.07
2022-10-05T18:13:41.963Z,17.67
2022-10-05T18:19:01.379Z,11.97
2022-10-05T18:24:37.122Z,17.50
2022-10-05T18:30:06.038Z,13.15
2022-10-05T18:35:20.538Z,18.50
2022-10-05T18:40:34.604Z,13.77
2022-10-05T18:45:46.455Z,9.73
2022-10-05T18:50:58.963Z,14.57
2022-10-05T18:56:07.625Z,13.90
2022-10-05T19:01:44.979Z,21.27
2022-10-05T19:07:02.785Z,21.80
2022-10-05T19:12:17.313Z,14.77
2022-10-05T19:17:42.261Z,13.80
2022-10-05T19:23:08.592Z,9.05
2022-10-05T19:28:26.174Z,8.70
2022-10-05T19:33:35.983Z,15.02
2022-10-05T19:38:50.587Z,8.52
2022-10-05T19:44:05.603Z,23.98
2022-10-05T19:49:12.353Z,6.80
2022-10-05T19:54:30.099Z,20.85
2022-10-05T19:59:35.783Z,25.80
2022-10-05T20:04:43.834Z,49.58
2022-10-05T20:10:22.136Z,21.58
2022-10-05T20:15:41.076Z,36.50
2022-10-05T20:20:48.641Z,9.70
2022-10-05T20:26:21.190Z,7.82
2022-10-05T20:31:26.446Z,11.52
2022-10-05T20:36:31.635Z,21.50
2022-10-05T20:41:39.483Z,11.70
2022-10-05T20:46:46.651Z,13.27
2022-10-05T20:51:52.014Z,12.38
2022-10-05T20:57:00.093Z,9.48
2022-10-05T21:02:05.408Z,9.40
2022-10-05T21:07:10.512Z,12.40
2022-10-05T21:12:19.409Z,11.02
2022-10-05T21:17:24.478Z,11.90
2022-10-05T21:22:29.631Z,20.75
2022-10-05T21:27:37.845Z,8.98
2022-10-05T21:32:44.618Z,12.25
2022-10-05T21:37:50.071Z,14.52
2022-10-05T21:42:59.026Z,33.85
2022-10-05T21:48:04.788Z,36.53
2022-10-05T21:53:17.447Z,27.85
2022-10-05T21:58:26.209Z,21.58
2022-10-05T22:03:31.610Z,12.75
2022-10-05T22:08:36.839Z,13.05
2022-10-05T22:13:49.386Z,13.88
2022-10-05T22:18:54.603Z,11.98
2022-10-05T22:24:00.427Z,10.52
2022-10-05T22:29:08.258Z,10.13
2022-10-05T22:34:14.247Z,13.45
2022-10-05T22:39:19.535Z,12.20
2022-10-05T22:44:27.454Z,13.93
2022-10-05T22:49:32.587Z,10.45
2022-10-05T22:54:37.678Z,10.95
2022-10-05T22:59:45.372Z,9.93
2022-10-05T23:04:50.452Z,12.63
2022-10-05T23:09:55.547Z,8.70
2022-10-05T23:15:03.290Z,9.20
2022-10-05T23:20:09.840Z,9.88
2022-10-05T23:25:15.923Z,10.70
2022-10-05T23:30:23.718Z,12.55
2022-10-05T23:35:28.998Z,8.30
2022-10-05T23:40:34.034Z,10.23
2022-10-05T23:45:41.809Z,13.43
2022-10-05T23:50:49.672Z,10.40
2022-10-05T23:55:55.109Z,11.60
